Fourmile, Kentucky
Current Conditions -  °F | °C
As of 2:55 PM on Monday 24 Nov 2014 (Local Time) from K1A6 Reporting Station
Scattered Clouds Scattered Clouds  
Wind Chill: 68°   Ceiling: Unl
Heat Index: 68°   Visibility: 10mi
Dew Point: 43°   Wind: 8mph
Humidity: 40%   Direction: 270°W
Pressure: 29.71"   Gusts: 16mph
Location:  36.79°N, 83.74°W
Report Text: K1A6 241955Z AUTO 27007G14KT 10SM SCT065 20/06 A2971 RMK AO2 T02020062
Loading
Personal Weather Stations






























Interactive Weather Map New forecast layout! Learn more

10-Day Weather Forecast

Advertisements
Track Severe Weather on mobile